Time;durP1;ratioP1;P1;durP2;ratioP2;P2;SDS_P1;SDS_P2;PMS_P1;PMS_P2;Temp;Humidity;BMP_temperature;BMP_pressure;BME280_temperature;BME280_humidity;BME280_pressure;Samples;Min_cycle;Max_cycle;Signal;HPM_P1;HPM_P2
2023/12/24 00:04:57;;;;;;;1.40;1.00;;;;;;;;;;10373838;28;20581;-68
2023/12/24 00:09:57;;;;;;;1.00;1.00;;;;;;;;;;10373931;28;20279;-68
2023/12/24 00:14:57;;;;;;;0.90;0.90;;;;;;;;;;10373477;28;20312;-67
2023/12/24 00:19:58;;;;;;;1.30;1.17;;;;;;;;;;10373442;28;20215;-67
2023/12/24 00:24:58;;;;;;;0.90;0.90;;;;;;;;;;10373457;28;20904;-66
2023/12/24 00:29:58;;;;;;;2.13;0.80;;;;;;;;;;10372807;28;20232;-67
2023/12/24 00:34:58;;;;;;;0.80;0.80;;;;;;;;;;10373161;28;20652;-66
2023/12/24 00:39:59;;;;;;;0.70;0.70;;;;;;;;;;10371124;28;20315;-67
2023/12/24 00:44:59;;;;;;;0.90;0.90;;;;;;;;;;10371606;28;20192;-67
2023/12/24 00:49:59;;;;;;;1.37;1.27;;;;;;;;;;10370735;28;20271;-67
2023/12/24 00:55:00;;;;;;;0.70;0.70;;;;;;;;;;10372237;28;20197;-67
2023/12/24 01:00:00;;;;;;;0.70;0.70;;;;;;;;;;10370422;28;20232;-68
2023/12/24 01:05:00;;;;;;;1.23;0.90;;;;;;;;;;10370996;28;20216;-68
2023/12/24 01:10:00;;;;;;;0.97;0.97;;;;;;;;;;10371652;28;20220;-68
2023/12/24 01:15:00;;;;;;;0.90;0.90;;;;;;;;;;10371298;28;20190;-68
2023/12/24 01:20:01;;;;;;;0.80;0.80;;;;;;;;;;10371222;28;20205;-68
2023/12/24 01:25:01;;;;;;;1.10;1.00;;;;;;;;;;10371085;28;20185;-68
2023/12/24 01:30:01;;;;;;;1.00;1.00;;;;;;;;;;10370636;28;20223;-68
2023/12/24 01:35:01;;;;;;;0.90;0.90;;;;;;;;;;10370552;28;20252;-68
2023/12/24 01:40:02;;;;;;;1.23;1.13;;;;;;;;;;10369993;28;20208;-68
2023/12/24 01:45:02;;;;;;;1.00;1.00;;;;;;;;;;10368885;28;20216;-67
2023/12/24 01:50:03;;;;;;;0.90;0.90;;;;;;;;;;10369713;28;20580;-67
2023/12/24 01:55:04;;;;;;;1.70;0.80;;;;;;;;;;10368443;28;20456;-66
2023/12/24 02:00:05;;;;;;;0.70;0.70;;;;;;;;;;10369297;28;20205;-67
2023/12/24 02:05:05;;;;;;;0.90;0.80;;;;;;;;;;10366920;28;20589;-67
2023/12/24 02:10:07;;;;;;;0.80;0.80;;;;;;;;;;10367166;28;20212;-67
2023/12/24 02:15:07;;;;;;;0.70;0.70;;;;;;;;;;10367206;28;20695;-67
2023/12/24 02:20:08;;;;;;;1.17;0.70;;;;;;;;;;10368765;28;20197;-67
2023/12/24 02:25:08;;;;;;;0.80;0.80;;;;;;;;;;10368678;28;20200;-67
2023/12/24 02:30:12;;;;;;;1.00;1.00;;;;;;;;;;10367292;28;20221;-67
2023/12/24 02:35:12;;;;;;;2.27;1.00;;;;;;;;;;10364749;28;20660;-67
2023/12/24 02:40:12;;;;;;;1.23;1.07;;;;;;;;;;10368451;28;20217;-67
2023/12/24 02:45:13;;;;;;;1.00;1.00;;;;;;;;;;10367758;28;20460;-66
2023/12/24 02:50:16;;;;;;;1.37;1.13;;;;;;;;;;10367803;28;20233;-67
2023/12/24 02:55:16;;;;;;;1.10;1.10;;;;;;;;;;10368016;28;20440;-66
2023/12/24 03:00:16;;;;;;;1.30;1.20;;;;;;;;;;10367638;28;20641;-67
2023/12/24 03:05:16;;;;;;;1.40;1.30;;;;;;;;;;10368029;28;20220;-67
2023/12/24 03:10:16;;;;;;;1.80;1.10;;;;;;;;;;10366972;28;21001;-67
2023/12/24 03:15:17;;;;;;;1.40;1.30;;;;;;;;;;10367462;28;20609;-67
2023/12/24 03:20:17;;;;;;;1.50;1.30;;;;;;;;;;10366832;28;20217;-67
2023/12/24 03:25:17;;;;;;;1.50;1.23;;;;;;;;;;10367102;28;20181;-67
2023/12/24 03:30:17;;;;;;;1.50;1.40;;;;;;;;;;10373954;28;20246;-67
2023/12/24 03:35:17;;;;;;;1.80;1.50;;;;;;;;;;10375024;28;20200;-67
2023/12/24 03:40:18;;;;;;;1.50;1.40;;;;;;;;;;10375206;28;20205;-67
2023/12/24 03:45:18;;;;;;;1.30;1.20;;;;;;;;;;10374505;28;20186;-68
2023/12/24 03:50:18;;;;;;;1.30;1.20;;;;;;;;;;10373349;28;20224;-68
2023/12/24 03:55:19;;;;;;;2.20;1.40;;;;;;;;;;10373266;28;20260;-68
2023/12/24 04:00:19;;;;;;;2.13;1.40;;;;;;;;;;10374268;28;20626;-68
2023/12/24 04:05:20;;;;;;;1.40;1.30;;;;;;;;;;10374223;28;20815;-68
2023/12/24 04:10:20;;;;;;;1.30;1.27;;;;;;;;;;10373639;28;20255;-67
2023/12/24 04:15:21;;;;;;;1.20;1.10;;;;;;;;;;10372575;28;20198;-68
2023/12/24 04:20:21;;;;;;;2.27;1.03;;;;;;;;;;10373675;28;20684;-67
2023/12/24 04:25:22;;;;;;;1.03;1.03;;;;;;;;;;10371959;28;20276;-67
2023/12/24 04:30:22;;;;;;;0.80;0.80;;;;;;;;;;10371727;28;20221;-67
2023/12/24 04:35:22;;;;;;;1.70;1.00;;;;;;;;;;10371266;28;20185;-67
2023/12/24 04:40:23;;;;;;;0.80;0.80;;;;;;;;;;10370560;28;20300;-67
2023/12/24 04:45:23;;;;;;;1.07;0.90;;;;;;;;;;10369324;28;20420;-67
2023/12/24 04:50:23;;;;;;;0.97;0.90;;;;;;;;;;10370992;28;20829;-67
2023/12/24 04:55:23;;;;;;;1.77;0.80;;;;;;;;;;10368909;28;20185;-67
2023/12/24 05:00:24;;;;;;;0.87;0.87;;;;;;;;;;10370651;28;20631;-67
2023/12/24 05:05:24;;;;;;;0.90;0.90;;;;;;;;;;10369847;28;20197;-67
2023/12/24 05:10:24;;;;;;;0.80;0.80;;;;;;;;;;10371710;28;20213;-67
2023/12/24 05:15:26;;;;;;;0.70;0.70;;;;;;;;;;10369925;28;20204;-67
2023/12/24 05:20:26;;;;;;;0.70;0.70;;;;;;;;;;10370076;28;20213;-67
2023/12/24 05:25:26;;;;;;;0.80;0.80;;;;;;;;;;10368890;28;20201;-67
2023/12/24 05:30:26;;;;;;;0.60;0.60;;;;;;;;;;10370560;28;20307;-67
2023/12/24 05:35:26;;;;;;;0.70;0.70;;;;;;;;;;10370811;28;20181;-67
2023/12/24 05:40:27;;;;;;;0.73;0.73;;;;;;;;;;10369832;28;20605;-67
2023/12/24 05:45:27;;;;;;;1.70;0.97;;;;;;;;;;10368794;28;20185;-67
2023/12/24 05:50:27;;;;;;;0.90;0.80;;;;;;;;;;10368986;28;20236;-67
2023/12/24 05:55:27;;;;;;;0.87;0.87;;;;;;;;;;10370028;28;20193;-67
2023/12/24 06:00:28;;;;;;;0.80;0.80;;;;;;;;;;10367082;28;20241;-66
2023/12/24 06:05:28;;;;;;;0.90;0.90;;;;;;;;;;10369442;28;20676;-66
2023/12/24 06:10:28;;;;;;;0.80;0.80;;;;;;;;;;10369384;28;20796;-67
2023/12/24 06:15:28;;;;;;;0.80;0.80;;;;;;;;;;10368935;28;20185;-66
2023/12/24 06:20:32;;;;;;;0.70;0.70;;;;;;;;;;10367136;28;20300;-67
2023/12/24 06:25:34;;;;;;;0.73;0.73;;;;;;;;;;10368676;28;20198;-67
2023/12/24 06:30:35;;;;;;;0.83;0.83;;;;;;;;;;10368473;28;20225;-67
2023/12/24 06:35:35;;;;;;;1.00;1.00;;;;;;;;;;10368722;28;20189;-67
2023/12/24 06:40:35;;;;;;;1.00;0.90;;;;;;;;;;10366139;28;20213;-67
2023/12/24 06:45:35;;;;;;;0.90;0.90;;;;;;;;;;10368455;28;20256;-67
2023/12/24 06:50:35;;;;;;;1.00;1.00;;;;;;;;;;10367862;28;20233;-66
2023/12/24 06:55:35;;;;;;;2.63;1.30;;;;;;;;;;10368118;28;20188;-68
2023/12/24 07:00:36;;;;;;;1.10;1.10;;;;;;;;;;10365896;28;20204;-68
2023/12/24 07:05:37;;;;;;;1.30;1.20;;;;;;;;;;10367272;28;20189;-67
2023/12/24 07:10:38;;;;;;;1.37;1.20;;;;;;;;;;10367476;28;20225;-67
2023/12/24 07:15:39;;;;;;;1.47;1.37;;;;;;;;;;10366094;28;20562;-68
2023/12/24 07:20:39;;;;;;;1.90;1.20;;;;;;;;;;10364911;28;20567;-67
2023/12/24 07:25:39;;;;;;;1.20;1.10;;;;;;;;;;10367287;28;20287;-66
2023/12/24 07:30:40;;;;;;;1.50;1.40;;;;;;;;;;10367066;28;20232;-66
2023/12/24 07:35:40;;;;;;;1.10;1.00;;;;;;;;;;10365093;28;20193;-66
2023/12/24 07:40:40;;;;;;;3.50;2.40;;;;;;;;;;10365193;28;20240;-67
2023/12/24 07:45:40;;;;;;;1.90;1.67;;;;;;;;;;10366818;28;20197;-66
2023/12/24 07:50:40;;;;;;;3.53;3.20;;;;;;;;;;10366782;28;20244;-66
2023/12/24 07:55:41;;;;;;;3.53;2.90;;;;;;;;;;10363083;28;20844;-67
2023/12/24 08:00:41;;;;;;;1.73;1.67;;;;;;;;;;10361273;28;20479;-67
2023/12/24 08:05:41;;;;;;;1.87;1.77;;;;;;;;;;10365773;28;20244;-67
2023/12/24 08:10:41;;;;;;;1.40;1.30;;;;;;;;;;10366329;28;20221;-66
2023/12/24 08:15:41;;;;;;;1.23;1.13;;;;;;;;;;10368504;28;20185;-66
2023/12/24 08:20:42;;;;;;;1.17;1.07;;;;;;;;;;10373350;28;20638;-67
2023/12/24 08:25:42;;;;;;;1.20;1.10;;;;;;;;;;10373200;28;20201;-67
2023/12/24 08:30:42;;;;;;;1.40;1.30;;;;;;;;;;10372580;28;20229;-66
2023/12/24 08:35:42;;;;;;;1.50;1.40;;;;;;;;;;10370641;28;20237;-66
2023/12/24 08:40:43;;;;;;;1.63;1.53;;;;;;;;;;10372889;28;20726;-66
2023/12/24 08:45:43;;;;;;;1.60;1.10;;;;;;;;;;10372323;28;20231;-66
2023/12/24 08:50:44;;;;;;;1.10;1.00;;;;;;;;;;10370414;28;21641;-66
2023/12/24 08:55:44;;;;;;;0.93;0.93;;;;;;;;;;10371937;28;20275;-66
2023/12/24 09:00:44;;;;;;;0.80;0.80;;;;;;;;;;10371496;28;20233;-66
2023/12/24 09:05:44;;;;;;;0.73;0.73;;;;;;;;;;10360565;28;20205;-67
2023/12/24 09:10:44;;;;;;;1.02;0.95;;;;;;;;;;10369123;28;20221;-65
2023/12/24 09:15:44;;;;;;;1.40;0.70;;;;;;;;;;10370544;28;20201;-66
2023/12/24 09:20:45;;;;;;;0.70;0.70;;;;;;;;;;10369511;28;20255;-65
2023/12/24 09:25:45;;;;;;;0.80;0.80;;;;;;;;;;10369854;28;20193;-65
2023/12/24 09:30:45;;;;;;;0.70;0.70;;;;;;;;;;10368010;28;20329;-65
2023/12/24 09:35:45;;;;;;;0.73;0.73;;;;;;;;;;10369975;28;20244;-66
2023/12/24 09:40:46;;;;;;;0.80;0.80;;;;;;;;;;10366969;28;20244;-65
2023/12/24 09:45:46;;;;;;;0.63;0.60;;;;;;;;;;10368026;28;20704;-65
2023/12/24 09:50:46;;;;;;;1.80;0.77;;;;;;;;;;10366219;28;20236;-65
2023/12/24 09:55:46;;;;;;;0.70;0.70;;;;;;;;;;10369260;28;20189;-66
2023/12/24 10:00:47;;;;;;;1.80;0.73;;;;;;;;;;10365193;28;20259;-67
2023/12/24 10:06:02;;;;;;;1.80;1.70;;;;;;;;;;10367185;28;20212;-66
2023/12/24 10:11:12;;;;;;;0.80;0.80;;;;;;;;;;10366377;28;20240;-66
2023/12/24 10:16:13;;;;;;;0.70;0.70;;;;;;;;;;10365511;28;20193;-67
2023/12/24 10:21:13;;;;;;;0.70;0.70;;;;;;;;;;10366158;28;20642;-67
2023/12/24 10:26:13;;;;;;;0.70;0.70;;;;;;;;;;10365957;28;20805;-67
2023/12/24 10:31:14;;;;;;;0.77;0.77;;;;;;;;;;10366315;28;20225;-68
2023/12/24 10:36:14;;;;;;;0.63;0.63;;;;;;;;;;10364869;28;20186;-67
2023/12/24 10:41:14;;;;;;;0.70;0.70;;;;;;;;;;10367667;28;20642;-68
2023/12/24 10:46:15;;;;;;;0.80;0.80;;;;;;;;;;10365267;28;20201;-68
2023/12/24 10:51:15;;;;;;;2.30;1.80;;;;;;;;;;10367193;28;20243;-67
2023/12/24 10:56:19;;;;;;;17.57;8.33;;;;;;;;;;10367066;28;20549;-68
2023/12/24 11:01:19;;;;;;;3.00;0.60;;;;;;;;;;10360991;28;20201;-69
2023/12/24 11:06:37;;;;;;;0.97;0.97;;;;;;;;;;10365725;28;20217;-69
2023/12/24 11:11:53;;;;;;;0.90;0.90;;;;;;;;;;10359276;28;20233;-68
2023/12/24 11:16:54;;;;;;;2.30;0.80;;;;;;;;;;10352340;28;20193;-69
2023/12/24 11:22:12;;;;;;;3.40;2.17;;;;;;;;;;10354742;28;20213;-69
2023/12/24 11:27:13;;;;;;;0.70;0.70;;;;;;;;;;10357929;28;20194;-70
2023/12/24 11:32:25;;;;;;;0.70;0.70;;;;;;;;;;10362614;28;20217;-70
2023/12/24 11:37:29;;;;;;;1.03;1.03;;;;;;;;;;10364520;28;20208;-70
2023/12/24 11:42:49;;;;;;;0.77;0.77;;;;;;;;;;10364029;28;20220;-70
2023/12/24 11:47:50;;;;;;;0.70;0.70;;;;;;;;;;10366322;28;20947;-70
2023/12/24 11:52:50;;;;;;;1.03;1.03;;;;;;;;;;10373701;28;20213;-70
2023/12/24 11:57:50;;;;;;;0.80;0.80;;;;;;;;;;10370910;28;20182;-70
2023/12/24 12:02:55;;;;;;;0.83;0.70;;;;;;;;;;10371098;28;20215;-70
2023/12/24 12:07:55;;;;;;;0.67;0.67;;;;;;;;;;10372955;28;20196;-70
2023/12/24 12:12:55;;;;;;;0.70;0.70;;;;;;;;;;10368852;28;20228;-69
2023/12/24 12:17:55;;;;;;;0.70;0.70;;;;;;;;;;10372527;28;20185;-70
2023/12/24 12:22:56;;;;;;;0.70;0.70;;;;;;;;;;10370835;28;20197;-69
2023/12/24 12:27:56;;;;;;;0.60;0.60;;;;;;;;;;10371920;28;20224;-70
2023/12/24 12:32:56;;;;;;;0.70;0.70;;;;;;;;;;10371586;28;20220;-70
2023/12/24 12:37:57;;;;;;;0.70;0.70;;;;;;;;;;10370714;28;20209;-70
2023/12/24 12:42:57;;;;;;;0.87;0.87;;;;;;;;;;10369455;28;20452;-69
2023/12/24 12:47:57;;;;;;;0.80;0.80;;;;;;;;;;10370222;28;20224;-69
2023/12/24 12:52:58;;;;;;;0.60;0.60;;;;;;;;;;10370665;28;20632;-69
2023/12/24 12:57:58;;;;;;;0.80;0.80;;;;;;;;;;10370439;28;20304;-69
2023/12/24 13:03:05;;;;;;;0.67;0.67;;;;;;;;;;10369364;28;20197;-69
2023/12/24 13:08:12;;;;;;;1.27;0.80;;;;;;;;;;10369998;28;20206;-69
2023/12/24 13:13:16;;;;;;;0.70;0.70;;;;;;;;;;10369329;28;20185;-69
2023/12/24 13:18:18;;;;;;;1.23;1.13;;;;;;;;;;10369035;28;20683;-69
2023/12/24 13:23:20;;;;;;;1.80;1.50;;;;;;;;;;10371196;28;20272;-70
2023/12/24 13:28:21;;;;;;;1.70;1.60;;;;;;;;;;10370870;28;20725;-70
2023/12/24 13:33:21;;;;;;;3.03;2.40;;;;;;;;;;10370609;28;20213;-69
2023/12/24 13:38:24;;;;;;;1.57;1.00;;;;;;;;;;10368506;28;20684;-69
2023/12/24 13:43:24;;;;;;;0.90;0.90;;;;;;;;;;10368722;28;20685;-69
2023/12/24 13:48:24;;;;;;;1.10;0.77;;;;;;;;;;10369640;28;20241;-69
2023/12/24 13:53:25;;;;;;;1.87;1.00;;;;;;;;;;10370022;28;20177;-69
2023/12/24 13:58:26;;;;;;;1.10;1.00;;;;;;;;;;10367638;28;20766;-69
2023/12/24 14:03:26;;;;;;;0.80;0.80;;;;;;;;;;10368985;28;20284;-69
2023/12/24 14:08:27;;;;;;;0.70;0.70;;;;;;;;;;10367838;28;20247;-69
2023/12/24 14:13:27;;;;;;;1.07;1.00;;;;;;;;;;10368739;28;20448;-69
2023/12/24 14:18:28;;;;;;;3.87;1.63;;;;;;;;;;10368477;28;20213;-69
2023/12/24 14:23:28;;;;;;;25.30;7.63;;;;;;;;;;10364132;28;20277;-69
2023/12/24 14:28:28;;;;;;;2.30;1.20;;;;;;;;;;10368099;28;20225;-69
2023/12/24 14:33:28;;;;;;;17.47;5.43;;;;;;;;;;10367864;28;20194;-69
2023/12/24 14:38:28;;;;;;;1.60;1.50;;;;;;;;;;10367959;28;20224;-69
2023/12/24 14:43:29;;;;;;;2.97;1.63;;;;;;;;;;10364077;28;20189;-68
2023/12/24 14:48:35;;;;;;;2.90;2.50;;;;;;;;;;10367429;28;20233;-69
2023/12/24 14:53:38;;;;;;;0.80;0.80;;;;;;;;;;10365889;28;20271;-69
2023/12/24 14:58:38;;;;;;;1.57;1.43;;;;;;;;;;10362462;28;20209;-69
2023/12/24 15:03:40;;;;;;;0.83;0.83;;;;;;;;;;10361335;28;20202;-69
2023/12/24 15:08:43;;;;;;;3.73;1.77;;;;;;;;;;10361703;28;20225;-69
2023/12/24 15:13:43;;;;;;;1.33;0.90;;;;;;;;;;10367067;28;20212;-69
2023/12/24 15:18:43;;;;;;;0.80;0.80;;;;;;;;;;10365968;28;20217;-69
2023/12/24 15:23:43;;;;;;;2.10;1.27;;;;;;;;;;10364445;28;20192;-69
2023/12/24 15:28:44;;;;;;;2.23;1.37;;;;;;;;;;10374825;28;20236;-69
2023/12/24 15:33:44;;;;;;;0.80;0.80;;;;;;;;;;10375259;28;20223;-69
2023/12/24 15:38:44;;;;;;;1.97;1.33;;;;;;;;;;10398188;23;20252;-69
2023/12/24 15:43:45;;;;;;;1.80;0.90;;;;;;;;;;10325347;28;20653;-67
2023/12/24 15:48:45;;;;;;;0.80;0.80;;;;;;;;;;10334378;28;20226;-69
2023/12/24 15:53:45;;;;;;;0.70;0.70;;;;;;;;;;10325836;28;20388;-70
2023/12/24 15:58:45;;;;;;;1.03;0.60;;;;;;;;;;10321090;28;20202;-69
2023/12/24 16:03:46;;;;;;;0.93;0.93;;;;;;;;;;10333787;28;20194;-70
2023/12/24 16:08:46;;;;;;;0.80;0.80;;;;;;;;;;10333656;28;20258;-69
2023/12/24 16:13:53;;;;;;;1.10;1.00;;;;;;;;;;10331309;28;20664;-70
2023/12/24 16:18:53;;;;;;;1.00;1.00;;;;;;;;;;10344073;23;20840;-69
2023/12/24 16:29:41;;;;;;;0.80;0.80;;;;;;;;;;10371289;28;20687;-70
2023/12/24 16:34:41;;;;;;;0.77;0.77;;;;;;;;;;10371863;28;20201;-69
2023/12/24 16:39:42;;;;;;;0.70;0.70;;;;;;;;;;10366906;28;20810;-69
2023/12/24 16:44:42;;;;;;;0.80;0.80;;;;;;;;;;10373003;28;20460;-69
2023/12/24 16:49:42;;;;;;;0.80;0.80;;;;;;;;;;10372420;28;20221;-69
2023/12/24 16:54:42;;;;;;;0.90;0.90;;;;;;;;;;10372588;28;20668;-69
2023/12/24 16:59:42;;;;;;;1.37;1.27;;;;;;;;;;10365757;28;20635;-69
2023/12/24 17:04:43;;;;;;;2.63;2.13;;;;;;;;;;10372090;28;20197;-69
2023/12/24 17:09:47;;;;;;;0.70;0.70;;;;;;;;;;10368913;28;20649;-69
2023/12/24 17:14:49;;;;;;;0.70;0.70;;;;;;;;;;10370037;28;20240;-70
2023/12/24 17:19:49;;;;;;;0.60;0.60;;;;;;;;;;10371307;28;20241;-69
2023/12/24 17:24:49;;;;;;;0.80;0.80;;;;;;;;;;10370450;28;20197;-71
2023/12/24 17:29:49;;;;;;;0.70;0.70;;;;;;;;;;10370847;28;20221;-69
2023/12/24 17:34:50;;;;;;;1.10;1.00;;;;;;;;;;10362165;28;20182;-69
2023/12/24 17:39:50;;;;;;;2.70;2.00;;;;;;;;;;10370707;28;20206;-70
2023/12/24 17:44:50;;;;;;;3.50;2.13;;;;;;;;;;10362207;28;20272;-70
2023/12/24 17:49:50;;;;;;;2.37;1.47;;;;;;;;;;10370049;28;20570;-70
2023/12/24 17:54:50;;;;;;;2.23;1.80;;;;;;;;;;10363827;28;20197;-70
2023/12/24 17:59:51;;;;;;;1.07;1.07;;;;;;;;;;10370130;28;20694;-70
2023/12/24 18:04:51;;;;;;;1.90;1.67;;;;;;;;;;10369429;28;20236;-70
2023/12/24 18:09:51;;;;;;;1.70;1.60;;;;;;;;;;10368549;28;20213;-69
2023/12/24 18:14:52;;;;;;;1.37;1.27;;;;;;;;;;10349545;28;20655;-70
2023/12/24 18:19:52;;;;;;;2.47;1.90;;;;;;;;;;10364737;28;20233;-70
2023/12/24 18:24:53;;;;;;;0.80;0.80;;;;;;;;;;10368425;28;20202;-71
2023/12/24 18:29:53;;;;;;;0.60;0.60;;;;;;;;;;10367928;28;20251;-69
2023/12/24 18:34:53;;;;;;;2.23;0.80;;;;;;;;;;10368140;28;20638;-69
2023/12/24 18:39:53;;;;;;;0.70;0.70;;;;;;;;;;10368582;28;20271;-69
2023/12/24 18:44:53;;;;;;;2.83;0.80;;;;;;;;;;10367615;28;20201;-69
2023/12/24 18:49:53;;;;;;;1.53;0.80;;;;;;;;;;10368303;28;20228;-68
2023/12/24 18:54:54;;;;;;;0.60;0.60;;;;;;;;;;10363625;28;20178;-67
2023/12/24 19:00:06;;;;;;;0.90;0.90;;;;;;;;;;10362571;28;20738;-67
2023/12/24 19:05:06;;;;;;;0.80;0.80;;;;;;;;;;10365737;28;20185;-69
2023/12/24 19:10:06;;;;;;;1.30;1.20;;;;;;;;;;10367538;28;20695;-69
2023/12/24 19:15:07;;;;;;;0.70;0.70;;;;;;;;;;10361716;28;20192;-70
2023/12/24 19:20:07;;;;;;;1.70;1.00;;;;;;;;;;10357349;28;20904;-70
2023/12/24 19:25:07;;;;;;;0.80;0.80;;;;;;;;;;10367296;28;20590;-70
2023/12/24 19:30:08;;;;;;;0.60;0.60;;;;;;;;;;10366644;28;20217;-70
2023/12/24 19:35:08;;;;;;;1.10;0.93;;;;;;;;;;10362024;28;20215;-70
2023/12/24 19:40:08;;;;;;;0.90;0.90;;;;;;;;;;10366827;28;20243;-70
2023/12/24 19:45:09;;;;;;;1.33;0.70;;;;;;;;;;10366132;28;20198;-69
2023/12/24 19:50:10;;;;;;;0.60;0.60;;;;;;;;;;10367009;28;20251;-70
2023/12/24 19:55:10;;;;;;;1.27;1.17;;;;;;;;;;10366911;28;20248;-69
2023/12/24 20:00:11;;;;;;;0.70;0.70;;;;;;;;;;10366819;28;20336;-70
2023/12/24 20:05:13;;;;;;;0.70;0.70;;;;;;;;;;10366425;28;20213;-70
2023/12/24 20:10:14;;;;;;;0.80;0.80;;;;;;;;;;10369583;28;20233;-70
2023/12/24 20:15:14;;;;;;;1.70;0.77;;;;;;;;;;10368010;28;20201;-69
2023/12/24 20:20:14;;;;;;;0.77;0.77;;;;;;;;;;10373265;28;20282;-69
2023/12/24 20:25:14;;;;;;;0.70;0.70;;;;;;;;;;10373522;28;20229;-70
2023/12/24 20:30:14;;;;;;;0.80;0.80;;;;;;;;;;10373065;28;20232;-70
2023/12/24 20:35:15;;;;;;;1.57;1.47;;;;;;;;;;10372957;28;20210;-70
2023/12/24 20:40:16;;;;;;;0.70;0.70;;;;;;;;;;10372868;28;20718;-70
2023/12/24 20:45:16;;;;;;;1.87;0.83;;;;;;;;;;10369704;28;20204;-69
2023/12/24 20:50:16;;;;;;;0.73;0.73;;;;;;;;;;10372101;28;20236;-70
2023/12/24 20:55:16;;;;;;;0.80;0.80;;;;;;;;;;10372034;28;20276;-70
2023/12/24 21:00:17;;;;;;;0.70;0.70;;;;;;;;;;10370343;28;20220;-71
2023/12/24 21:05:17;;;;;;;0.60;0.60;;;;;;;;;;10371635;28;20225;-70
2023/12/24 21:10:17;;;;;;;0.60;0.60;;;;;;;;;;10371111;28;20993;-70
2023/12/24 21:15:17;;;;;;;0.57;0.57;;;;;;;;;;10371256;28;20186;-70
2023/12/24 21:20:17;;;;;;;0.90;0.90;;;;;;;;;;10370429;28;20291;-70
2023/12/24 21:25:18;;;;;;;0.70;0.70;;;;;;;;;;10370778;28;20201;-70
2023/12/24 21:30:18;;;;;;;1.03;0.97;;;;;;;;;;10370670;28;20278;-70
2023/12/24 21:35:18;;;;;;;2.60;2.07;;;;;;;;;;10370378;28;20604;-70
2023/12/24 21:40:18;;;;;;;0.67;0.67;;;;;;;;;;10373895;23;20289;-71
2023/12/24 21:45:18;;;;;;;0.60;0.60;;;;;;;;;;10286098;28;20182;-71
2023/12/24 21:50:19;;;;;;;0.50;0.50;;;;;;;;;;10288859;28;20596;-70
2023/12/24 21:55:19;;;;;;;0.50;0.50;;;;;;;;;;10289090;28;20186;-70
2023/12/24 22:00:20;;;;;;;0.80;0.80;;;;;;;;;;10288357;28;20218;-70
2023/12/24 22:05:20;;;;;;;0.60;0.60;;;;;;;;;;10288486;28;20237;-71
2023/12/24 22:10:20;;;;;;;0.60;0.60;;;;;;;;;;10288511;28;20218;-70
2023/12/24 22:15:20;;;;;;;0.50;0.50;;;;;;;;;;10288605;28;20191;-71
2023/12/24 22:20:21;;;;;;;0.60;0.60;;;;;;;;;;10289760;28;20217;-71
2023/12/24 22:25:21;;;;;;;0.60;0.60;;;;;;;;;;10289168;28;20282;-70
2023/12/24 22:30:22;;;;;;;0.80;0.60;;;;;;;;;;10288414;28;20218;-70
2023/12/24 22:35:23;;;;;;;0.60;0.60;;;;;;;;;;10287082;28;20277;-71
2023/12/24 22:40:23;;;;;;;0.70;0.70;;;;;;;;;;10287531;28;20673;-71
2023/12/24 22:45:23;;;;;;;0.53;0.53;;;;;;;;;;10287854;28;20209;-72
2023/12/24 22:50:23;;;;;;;0.60;0.60;;;;;;;;;;10287284;28;20218;-71
2023/12/24 22:55:24;;;;;;;0.60;0.60;;;;;;;;;;10287526;28;20827;-70
2023/12/24 23:00:25;;;;;;;1.33;0.70;;;;;;;;;;10287001;28;20214;-71
2023/12/24 23:05:25;;;;;;;0.60;0.60;;;;;;;;;;10287233;28;20214;-70
2023/12/24 23:10:25;;;;;;;0.67;0.60;;;;;;;;;;10287113;28;20293;-69
2023/12/24 23:15:26;;;;;;;1.57;0.60;;;;;;;;;;10287004;28;20202;-69
2023/12/24 23:20:26;;;;;;;0.60;0.60;;;;;;;;;;10286906;28;20226;-69
2023/12/24 23:25:26;;;;;;;0.67;0.67;;;;;;;;;;10286884;28;20202;-69
2023/12/24 23:30:29;;;;;;;0.50;0.50;;;;;;;;;;10286485;28;20599;-69
2023/12/24 23:35:29;;;;;;;0.60;0.60;;;;;;;;;;10286594;28;20201;-68
2023/12/24 23:40:29;;;;;;;0.60;0.60;;;;;;;;;;10286547;28;20628;-68
2023/12/24 23:45:29;;;;;;;0.97;0.70;;;;;;;;;;10290175;28;20195;-68
2023/12/24 23:50:30;;;;;;;0.60;0.60;;;;;;;;;;10294405;28;20227;-68
2023/12/24 23:55:30;;;;;;;0.70;0.70;;;;;;;;;;10294084;28;20198;-68
